sensor_id;sensor_type;location;lat;lon;timestamp;pressure;altitude;pressure_sealevel;temperature;humidity
50484;BME280;36409;52.168;20.878;2022-09-20T00:01:28;100008.88;;;8.77;80.48
50484;BME280;36409;52.168;20.878;2022-09-20T00:04:00;100008.03;;;8.74;79.61
50484;BME280;36409;52.168;20.878;2022-09-20T00:06:32;100008.06;;;8.72;79.85
50484;BME280;36409;52.168;20.878;2022-09-20T00:09:01;100015.89;;;8.69;80.47
50484;BME280;36409;52.168;20.878;2022-09-20T00:11:32;100011.57;;;8.68;80.48
50484;BME280;36409;52.168;20.878;2022-09-20T00:14:02;100012.48;;;8.65;80.19
50484;BME280;36409;52.168;20.878;2022-09-20T00:16:33;100016.83;;;8.65;80.43
50484;BME280;36409;52.168;20.878;2022-09-20T00:19:02;100013.35;;;8.64;80.39
50484;BME280;36409;52.168;20.878;2022-09-20T00:21:33;100010.75;;;8.64;80.25
50484;BME280;36409;52.168;20.878;2022-09-20T00:24:03;100012.50;;;8.64;79.83
50484;BME280;36409;52.168;20.878;2022-09-20T00:26:33;100014.23;;;8.63;80.40
50484;BME280;36409;52.168;20.878;2022-09-20T00:29:02;100016.86;;;8.62;80.16
50484;BME280;36409;52.168;20.878;2022-09-20T00:31:32;100020.34;;;8.61;80.43
50484;BME280;36409;52.168;20.878;2022-09-20T00:34:02;100018.61;;;8.60;80.34
50484;BME280;36409;52.168;20.878;2022-09-20T00:36:49;100022.97;;;8.59;79.75
50484;BME280;36409;52.168;20.878;2022-09-20T00:39:18;100019.48;;;8.59;80.09
50484;BME280;36409;52.168;20.878;2022-09-20T00:41:46;100016.03;;;8.57;80.41
50484;BME280;36409;52.168;20.878;2022-09-20T00:44:43;100021.24;;;8.57;80.63
50484;BME280;36409;52.168;20.878;2022-09-20T00:47:20;100023.00;;;8.56;80.73
50484;BME280;36409;52.168;20.878;2022-09-20T00:49:53;100021.24;;;8.57;80.16
50484;BME280;36409;52.168;20.878;2022-09-20T00:52:24;100021.24;;;8.57;79.99
50484;BME280;36409;52.168;20.878;2022-09-20T00:54:54;100023.84;;;8.57;80.74
50484;BME280;36409;52.168;20.878;2022-09-20T00:57:25;100022.12;;;8.56;80.46
50484;BME280;36409;52.168;20.878;2022-09-20T00:59:54;100024.72;;;8.56;80.10
50484;BME280;36409;52.168;20.878;2022-09-20T01:02:26;100016.91;;;8.56;80.27
50484;BME280;36409;52.168;20.878;2022-09-20T01:04:57;100019.52;;;8.56;80.55
50484;BME280;36409;52.168;20.878;2022-09-20T01:07:26;100017.83;;;8.55;80.14
50484;BME280;36409;52.168;20.878;2022-09-20T01:09:56;100025.62;;;8.55;80.53
50484;BME280;36409;52.168;20.878;2022-09-20T01:12:29;100023.02;;;8.55;80.45
50484;BME280;36409;52.168;20.878;2022-09-20T01:14:59;100017.83;;;8.55;80.55
50484;BME280;36409;52.168;20.878;2022-09-20T01:17:32;100026.50;;;8.54;80.17
50484;BME280;36409;52.168;20.878;2022-09-20T01:20:11;100023.91;;;8.54;80.19
50484;BME280;36409;52.168;20.878;2022-09-20T01:22:49;100024.78;;;8.53;80.77
50484;BME280;36409;52.168;20.878;2022-09-20T01:25:28;100030.87;;;8.48;80.25
50484;BME280;36409;52.168;20.878;2022-09-20T01:28:04;100024.83;;;8.48;80.67
50484;BME280;36409;52.168;20.878;2022-09-20T01:30:38;100027.42;;;8.45;80.80
50484;BME280;36409;52.168;20.878;2022-09-20T01:33:11;100032.65;;;8.42;80.58
50484;BME280;36409;52.168;20.878;2022-09-20T01:35:45;100024.88;;;8.40;80.31
50484;BME280;36409;52.168;20.878;2022-09-20T01:38:28;100035.28;;;8.40;80.64
50484;BME280;36409;52.168;20.878;2022-09-20T01:41:07;100023.15;;;8.39;80.93
50484;BME280;36409;52.168;20.878;2022-09-20T01:43:41;100031.80;;;8.40;80.75
50484;BME280;36409;52.168;20.878;2022-09-20T01:46:23;100039.60;;;8.40;80.41
50484;BME280;36409;52.168;20.878;2022-09-20T01:49:04;100033.55;;;8.39;80.38
50484;BME280;36409;52.168;20.878;2022-09-20T01:52:12;100033.55;;;8.39;80.38
50484;BME280;36409;52.168;20.878;2022-09-20T01:55:14;100041.38;;;8.38;80.49
50484;BME280;36409;52.168;20.878;2022-09-20T01:58:09;100041.38;;;8.36;80.67
50484;BME280;36409;52.168;20.878;2022-09-20T02:01:03;100045.70;;;8.37;80.50
50484;BME280;36409;52.168;20.878;2022-09-20T02:03:56;100038.78;;;8.38;80.67
50484;BME280;36409;52.168;20.878;2022-09-20T02:07:00;100040.50;;;8.37;80.68
50484;BME280;36409;52.168;20.878;2022-09-20T02:09:57;100043.11;;;8.37;80.46
50484;BME280;36409;52.168;20.878;2022-09-20T02:12:52;100046.58;;;8.38;80.82
50484;BME280;36409;52.168;20.878;2022-09-20T02:15:38;100056.98;;;8.38;80.47
50484;BME280;36409;52.168;20.878;2022-09-20T02:18:23;100055.23;;;8.38;80.50
50484;BME280;36409;52.168;20.878;2022-09-20T02:21:03;100061.31;;;8.37;81.06
50484;BME280;36409;52.168;20.878;2022-09-20T02:23:45;100054.37;;;8.36;80.70
50484;BME280;36409;52.168;20.878;2022-09-20T02:26:30;100055.26;;;8.37;80.84
50484;BME280;36409;52.168;20.878;2022-09-20T02:29:11;100050.06;;;8.37;81.02
50484;BME280;36409;52.168;20.878;2022-09-20T02:31:59;100043.13;;;8.34;81.02
50484;BME280;36409;52.168;20.878;2022-09-20T02:34:56;100055.25;;;8.35;80.60
50484;BME280;36409;52.168;20.878;2022-09-20T02:37:47;100051.83;;;8.33;80.95
50484;BME280;36409;52.168;20.878;2022-09-20T02:40:27;100046.63;;;8.33;81.15
50484;BME280;36409;52.168;20.878;2022-09-20T02:43:06;100053.55;;;8.32;80.43
50484;BME280;36409;52.168;20.878;2022-09-20T02:45:43;100050.11;;;8.32;80.73
50484;BME280;36409;52.168;20.878;2022-09-20T02:48:18;100057.03;;;8.31;80.31
50484;BME280;36409;52.168;20.878;2022-09-20T02:50:53;100058.75;;;8.32;80.87
50484;BME280;36409;52.168;20.878;2022-09-20T02:53:33;100056.19;;;8.31;80.95
50484;BME280;36409;52.168;20.878;2022-09-20T02:56:10;100056.19;;;8.31;81.02
50484;BME280;36409;52.168;20.878;2022-09-20T02:58:48;100062.23;;;8.31;81.07
50484;BME280;36409;52.168;20.878;2022-09-20T03:01:31;100063.11;;;8.30;81.09
50484;BME280;36409;52.168;20.878;2022-09-20T03:04:16;100066.59;;;8.31;81.13
50484;BME280;36409;52.168;20.878;2022-09-20T03:06:54;100065.70;;;8.30;80.76
50484;BME280;36409;52.168;20.878;2022-09-20T03:09:34;100065.70;;;8.30;81.08
50484;BME280;36409;52.168;20.878;2022-09-20T03:12:16;100065.73;;;8.29;80.54
50484;BME280;36409;52.168;20.878;2022-09-20T03:14:56;100069.20;;;8.28;81.04
50484;BME280;36409;52.168;20.878;2022-09-20T03:17:34;100066.61;;;8.28;81.22
50484;BME280;36409;52.168;20.878;2022-09-20T03:20:18;100066.63;;;8.26;80.86
50484;BME280;36409;52.168;20.878;2022-09-20T03:22:58;100065.75;;;8.26;81.02
50484;BME280;36409;52.168;20.878;2022-09-20T03:25:41;100070.08;;;8.27;80.56
50484;BME280;36409;52.168;20.878;2022-09-20T03:31:26;100075.30;;;8.25;80.66
50484;BME280;36409;52.168;20.878;2022-09-20T03:34:04;100071.83;;;8.25;80.54
50484;BME280;36409;52.168;20.878;2022-09-20T03:36:49;100072.70;;;8.25;80.98
50484;BME280;36409;52.168;20.878;2022-09-20T03:39:36;100073.58;;;8.24;81.03
50484;BME280;36409;52.168;20.878;2022-09-20T03:42:14;100077.05;;;8.23;81.18
50484;BME280;36409;52.168;20.878;2022-09-20T03:45:14;100077.05;;;8.23;81.30
50484;BME280;36409;52.168;20.878;2022-09-20T03:48:19;100073.57;;;8.23;80.96
50484;BME280;36409;52.168;20.878;2022-09-20T03:51:02;100080.55;;;8.21;81.31
50484;BME280;36409;52.168;20.878;2022-09-20T03:59:38;100080.57;;;8.17;80.46
50484;BME280;36409;52.168;20.878;2022-09-20T04:02:30;100077.95;;;8.19;81.20
50484;BME280;36409;52.168;20.878;2022-09-20T04:05:04;100083.14;;;8.19;81.00
50484;BME280;36409;52.168;20.878;2022-09-20T04:07:42;100084.89;;;8.18;80.39
50484;BME280;36409;52.168;20.878;2022-09-20T04:10:36;100089.24;;;8.16;80.76
50484;BME280;36409;52.168;20.878;2022-09-20T04:13:23;100097.91;;;8.15;80.50
50484;BME280;36409;52.168;20.878;2022-09-20T04:15:57;100093.59;;;8.14;80.98
50484;BME280;36409;52.168;20.878;2022-09-20T04:18:34;100086.66;;;8.13;81.00
50484;BME280;36409;52.168;20.878;2022-09-20T04:21:10;100097.06;;;8.15;81.29
50484;BME280;36409;52.168;20.878;2022-09-20T04:23:48;100102.27;;;8.15;80.80
50484;BME280;36409;52.168;20.878;2022-09-20T04:26:23;100099.67;;;8.15;80.76
50484;BME280;36409;52.168;20.878;2022-09-20T04:28:57;100100.52;;;8.15;81.21
50484;BME280;36409;52.168;20.878;2022-09-20T04:31:35;100106.59;;;8.16;80.92
50484;BME280;36409;52.168;20.878;2022-09-20T04:34:13;100106.59;;;8.16;81.37
50484;BME280;36409;52.168;20.878;2022-09-20T04:36:58;100115.24;;;8.16;81.01
50484;BME280;36409;52.168;20.878;2022-09-20T04:39:38;100119.59;;;8.16;81.23
50484;BME280;36409;52.168;20.878;2022-09-20T04:45:52;100120.42;;;8.18;81.12
50484;BME280;36409;52.168;20.878;2022-09-20T04:48:58;100125.62;;;8.18;80.84
50484;BME280;36409;52.168;20.878;2022-09-20T04:58:06;100129.08;;;8.20;81.06
50484;BME280;36409;52.168;20.878;2022-09-20T05:01:03;100134.28;;;8.22;81.22
50484;BME280;36409;52.168;20.878;2022-09-20T05:04:00;100146.38;;;8.23;81.11
50484;BME280;36409;52.168;20.878;2022-09-20T05:09:52;100147.22;;;8.28;81.12
50484;BME280;36409;52.168;20.878;2022-09-20T05:12:59;100155.00;;;8.31;81.02
50484;BME280;36409;52.168;20.878;2022-09-20T05:15:40;100163.64;;;8.34;80.57
50484;BME280;36409;52.168;20.878;2022-09-20T05:18:30;100165.34;;;8.37;81.00
50484;BME280;36409;52.168;20.878;2022-09-20T05:21:16;100160.14;;;8.37;80.66
50484;BME280;36409;52.168;20.878;2022-09-20T05:23:58;100162.72;;;8.40;81.18
50484;BME280;36409;52.168;20.878;2022-09-20T05:26:41;100178.28;;;8.45;80.94
50484;BME280;36409;52.168;20.878;2022-09-20T05:29:20;100172.22;;;8.47;81.29
50484;BME280;36409;52.168;20.878;2022-09-20T05:31:57;100175.67;;;8.49;80.70
50484;BME280;36409;52.168;20.878;2022-09-20T05:34:33;100177.41;;;8.50;80.84
50484;BME280;36409;52.168;20.878;2022-09-20T05:37:18;100173.91;;;8.53;81.49
50484;BME280;36409;52.168;20.878;2022-09-20T05:39:56;100182.56;;;8.55;81.52
50484;BME280;36409;52.168;20.878;2022-09-20T05:42:36;100184.30;;;8.56;80.64
50484;BME280;36409;52.168;20.878;2022-09-20T05:45:21;100192.07;;;8.58;80.90
50484;BME280;36409;52.168;20.878;2022-09-20T05:48:04;100190.30;;;8.61;81.09
50484;BME280;36409;52.168;20.878;2022-09-20T05:50:46;100193.78;;;8.62;81.01
50484;BME280;36409;52.168;20.878;2022-09-20T05:56:40;100192.84;;;8.69;81.49
50484;BME280;36409;52.168;20.878;2022-09-20T05:59:27;100187.64;;;8.71;81.54
50484;BME280;36409;52.168;20.878;2022-09-20T06:02:07;100189.37;;;8.72;81.45
50484;BME280;36409;52.168;20.878;2022-09-20T06:04:43;100198.88;;;8.74;81.12
50484;BME280;36409;52.168;20.878;2022-09-20T06:07:23;100199.73;;;8.76;80.66
50484;BME280;36409;52.168;20.878;2022-09-20T06:13:05;100205.77;;;8.80;81.27
50484;BME280;36409;52.168;20.878;2022-09-20T06:15:47;100205.73;;;8.81;81.11
50484;BME280;36409;52.168;20.878;2022-09-20T06:18:24;100202.27;;;8.83;81.16
50484;BME280;36409;52.168;20.878;2022-09-20T06:21:01;100209.17;;;8.85;81.24
50484;BME280;36409;52.168;20.878;2022-09-20T06:23:34;100209.15;;;8.88;80.75
50484;BME280;36409;52.168;20.878;2022-09-20T06:26:06;100214.33;;;8.91;80.66
50484;BME280;36409;52.168;20.878;2022-09-20T06:28:37;100210.85;;;8.92;80.84
50484;BME280;36409;52.168;20.878;2022-09-20T06:31:08;100212.55;;;8.95;80.77
50484;BME280;36409;52.168;20.878;2022-09-20T06:33:42;100209.05;;;8.98;80.64
50484;BME280;36409;52.168;20.878;2022-09-20T06:36:15;100215.94;;;9.03;81.27
50484;BME280;36409;52.168;20.878;2022-09-20T06:39:13;100214.16;;;9.08;81.58
50484;BME280;36409;52.168;20.878;2022-09-20T06:42:02;100220.17;;;9.14;80.94
50484;BME280;36409;52.168;20.878;2022-09-20T06:44:31;100216.69;;;9.16;81.25
50484;BME280;36409;52.168;20.878;2022-09-20T06:47:00;100218.36;;;9.22;81.32
50484;BME280;36409;52.168;20.878;2022-09-20T06:49:35;100218.34;;;9.23;81.16
50484;BME280;36409;52.168;20.878;2022-09-20T06:52:05;100226.09;;;9.28;80.94
50484;BME280;36409;52.168;20.878;2022-09-20T06:54:34;100221.77;;;9.29;80.95
50484;BME280;36409;52.168;20.878;2022-09-20T06:57:05;100222.59;;;9.31;81.19
50484;BME280;36409;52.168;20.878;2022-09-20T06:59:34;100219.95;;;9.34;80.92
50484;BME280;36409;52.168;20.878;2022-09-20T07:02:02;100225.98;;;9.39;80.62
50484;BME280;36409;52.168;20.878;2022-09-20T07:04:31;100232.02;;;9.42;81.60
50484;BME280;36409;52.168;20.878;2022-09-20T07:07:02;100231.99;;;9.44;80.84
50484;BME280;36409;52.168;20.878;2022-09-20T07:09:37;100244.14;;;9.45;80.61
50484;BME280;36409;52.168;20.878;2022-09-20T07:12:05;100245.90;;;9.45;80.37
50484;BME280;36409;52.168;20.878;2022-09-20T07:14:39;100249.32;;;9.47;80.52
50484;BME280;36409;52.168;20.878;2022-09-20T07:17:07;100248.42;;;9.51;80.71
50484;BME280;36409;52.168;20.878;2022-09-20T07:19:35;100253.57;;;9.55;80.97
50484;BME280;36409;52.168;20.878;2022-09-20T07:22:04;100252.66;;;9.60;81.11
50484;BME280;36409;52.168;20.878;2022-09-20T07:24:33;100263.03;;;9.64;80.77
50484;BME280;36409;52.168;20.878;2022-09-20T07:27:03;100265.61;;;9.66;81.48
50484;BME280;36409;52.168;20.878;2022-09-20T07:29:32;100262.16;;;9.64;80.19
50484;BME280;36409;52.168;20.878;2022-09-20T07:32:02;100269.09;;;9.66;80.74
50484;BME280;36409;52.168;20.878;2022-09-20T07:34:31;100268.19;;;9.69;81.32
50484;BME280;36409;52.168;20.878;2022-09-20T07:36:59;100268.16;;;9.70;80.87
50484;BME280;36409;52.168;20.878;2022-09-20T07:39:29;100275.91;;;9.75;81.24
50484;BME280;36409;52.168;20.878;2022-09-20T07:41:57;100280.25;;;9.78;80.45
50484;BME280;36409;52.168;20.878;2022-09-20T07:44:26;100276.77;;;9.77;80.64
50484;BME280;36409;52.168;20.878;2022-09-20T07:46:56;100286.28;;;9.80;80.31
50484;BME280;36409;52.168;20.878;2022-09-20T07:49:26;100285.34;;;9.87;80.85
50484;BME280;36409;52.168;20.878;2022-09-20T07:51:58;100284.41;;;9.91;81.16
50484;BME280;36409;52.168;20.878;2022-09-20T07:54:26;100292.20;;;9.94;80.67
50484;BME280;36409;52.168;20.878;2022-09-20T07:56:55;100298.27;;;9.96;80.05
50484;BME280;36409;52.168;20.878;2022-09-20T07:59:24;100286.95;;;9.97;81.17
50484;BME280;36409;52.168;20.878;2022-09-20T08:01:53;100296.47;;;10.00;80.75
50484;BME280;36409;52.168;20.878;2022-09-20T08:04:21;100295.63;;;9.99;81.05
50484;BME280;36409;52.168;20.878;2022-09-20T08:06:50;100301.69;;;10.00;81.17
50484;BME280;36409;52.168;20.878;2022-09-20T08:09:18;100304.27;;;10.03;80.67
50484;BME280;36409;52.168;20.878;2022-09-20T08:11:47;100297.25;;;10.07;80.28
50484;BME280;36409;52.168;20.878;2022-09-20T08:14:17;100300.68;;;10.10;80.67
50484;BME280;36409;52.168;20.878;2022-09-20T08:16:48;100305.83;;;10.15;81.00
50484;BME280;36409;52.168;20.878;2022-09-20T08:19:19;100306.61;;;10.22;80.11
50484;BME280;36409;52.168;20.878;2022-09-20T08:21:49;100300.45;;;10.27;80.61
50484;BME280;36409;52.168;20.878;2022-09-20T08:24:20;100307.30;;;10.36;80.79
50484;BME280;36409;52.168;20.878;2022-09-20T08:26:49;100308.98;;;10.42;80.36
50484;BME280;36409;52.168;20.878;2022-09-20T08:29:17;100308.95;;;10.45;80.70
50484;BME280;36409;52.168;20.878;2022-09-20T08:31:46;100309.80;;;10.47;80.61
50484;BME280;36409;52.168;20.878;2022-09-20T08:34:15;100304.50;;;10.52;81.29
50484;BME280;36409;52.168;20.878;2022-09-20T08:36:46;100308.77;;;10.57;80.40
50484;BME280;36409;52.168;20.878;2022-09-20T08:39:17;100313.84;;;10.66;81.20
50484;BME280;36409;52.168;20.878;2022-09-20T08:42:13;100315.46;;;10.74;80.35
50484;BME280;36409;52.168;20.878;2022-09-20T08:44:50;100316.16;;;10.85;80.36
50484;BME280;36409;52.168;20.878;2022-09-20T08:47:30;100310.65;;;11.02;80.36
50484;BME280;36409;52.168;20.878;2022-09-20T08:50:02;100315.66;;;11.15;80.23
50484;BME280;36409;52.168;20.878;2022-09-20T08:52:42;100309.42;;;11.23;80.67
50484;BME280;36409;52.168;20.878;2022-09-20T08:55:15;100316.20;;;11.34;80.71
50484;BME280;36409;52.168;20.878;2022-09-20T08:57:47;100319.53;;;11.42;80.22
50484;BME280;36409;52.168;20.878;2022-09-20T09:00:19;100323.73;;;11.51;80.27
50484;BME280;36409;52.168;20.878;2022-09-20T09:02:49;100328.83;;;11.58;80.67
50484;BME280;36409;52.168;20.878;2022-09-20T09:05:31;100320.81;;;11.66;80.61
50484;BME280;36409;52.168;20.878;2022-09-20T09:08:04;100322.44;;;11.73;80.55
50484;BME280;36409;52.168;20.878;2022-09-20T09:10:36;100321.55;;;11.74;80.37
50484;BME280;36409;52.168;20.878;2022-09-20T09:13:23;100325.89;;;11.74;80.40
50484;BME280;36409;52.168;20.878;2022-09-20T09:15:56;100329.44;;;11.71;80.71
50484;BME280;36409;52.168;20.878;2022-09-20T09:18:31;100325.06;;;11.72;79.84
50484;BME280;36409;52.168;20.878;2022-09-20T09:21:05;100328.56;;;11.71;80.00
50484;BME280;36409;52.168;20.878;2022-09-20T09:23:40;100331.17;;;11.71;80.28
50484;BME280;36409;52.168;20.878;2022-09-20T09:26:17;100335.59;;;11.69;80.14
50484;BME280;36409;52.168;20.878;2022-09-20T09:29:07;100335.59;;;11.69;80.19
50484;BME280;36409;52.168;20.878;2022-09-20T09:31:36;100332.02;;;11.73;80.29
50484;BME280;36409;52.168;20.878;2022-09-20T09:34:22;100337.89;;;11.84;79.16
50484;BME280;36409;52.168;20.878;2022-09-20T09:36:52;100335.08;;;11.95;80.45
50484;BME280;36409;52.168;20.878;2022-09-20T09:39:24;100340.14;;;12.04;79.88
50484;BME280;36409;52.168;20.878;2022-09-20T09:41:54;100333.78;;;12.16;79.40
50484;BME280;36409;52.168;20.878;2022-09-20T09:44:24;100332.72;;;12.27;79.04
50484;BME280;36409;52.168;20.878;2022-09-20T09:46:55;100334.97;;;12.42;79.18
50484;BME280;36409;52.168;20.878;2022-09-20T09:49:25;100326.06;;;12.51;80.00
50484;BME280;36409;52.168;20.878;2022-09-20T09:52:10;100333.81;;;12.56;80.08
50484;BME280;36409;52.168;20.878;2022-09-20T09:54:44;100331.19;;;12.56;78.78
50484;BME280;36409;52.168;20.878;2022-09-20T09:57:22;100340.59;;;12.64;78.49
50484;BME280;36409;52.168;20.878;2022-09-20T10:00:03;100335.20;;;12.71;78.84
50484;BME280;36409;52.168;20.878;2022-09-20T10:02:59;100336.14;;;12.68;79.31
50484;BME280;36409;52.168;20.878;2022-09-20T10:05:38;100344.05;;;12.66;79.42
50484;BME280;36409;52.168;20.878;2022-09-20T10:08:21;100342.38;;;12.62;78.62
50484;BME280;36409;52.168;20.878;2022-09-20T10:11:05;100342.43;;;12.61;78.64
50484;BME280;36409;52.168;20.878;2022-09-20T10:13:42;100340.70;;;12.60;78.62
50484;BME280;36409;52.168;20.878;2022-09-20T10:16:22;100335.36;;;12.64;78.83
50484;BME280;36409;52.168;20.878;2022-09-20T10:19:01;100342.70;;;12.86;78.78
50484;BME280;36409;52.168;20.878;2022-09-20T10:21:42;100344.38;;;13.25;78.63
50484;BME280;36409;52.168;20.878;2022-09-20T10:24:30;100343.28;;;13.34;78.82
50484;BME280;36409;52.168;20.878;2022-09-20T10:27:09;100336.03;;;13.45;78.52
50484;BME280;36409;52.168;20.878;2022-09-20T10:29:48;100341.99;;;13.50;77.92
50484;BME280;36409;52.168;20.878;2022-09-20T10:32:29;100341.22;;;13.47;77.63
50484;BME280;36409;52.168;20.878;2022-09-20T10:35:10;100338.39;;;13.54;78.22
50484;BME280;36409;52.168;20.878;2022-09-20T10:37:49;100346.70;;;13.70;77.95
50484;BME280;36409;52.168;20.878;2022-09-20T10:40:27;100336.98;;;13.74;77.35
50484;BME280;36409;52.168;20.878;2022-09-20T10:43:25;100344.03;;;13.72;77.96
50484;BME280;36409;52.168;20.878;2022-09-20T10:46:04;100343.00;;;13.78;77.62
50484;BME280;36409;52.168;20.878;2022-09-20T10:49:02;100341.06;;;13.84;78.02
50484;BME280;36409;52.168;20.878;2022-09-20T10:51:40;100341.13;;;14.13;77.24
50484;BME280;36409;52.168;20.878;2022-09-20T10:54:22;100347.38;;;14.39;77.64
50484;BME280;36409;52.168;20.878;2022-09-20T10:57:02;100339.13;;;14.51;77.04
50484;BME280;36409;52.168;20.878;2022-09-20T10:59:39;100346.45;;;14.70;77.24
50484;BME280;36409;52.168;20.878;2022-09-20T11:02:39;100337.58;;;14.74;77.17
50484;BME280;36409;52.168;20.878;2022-09-20T11:05:27;100338.84;;;14.89;76.70
50484;BME280;36409;52.168;20.878;2022-09-20T11:08:07;100343.73;;;15.00;76.88
50484;BME280;36409;52.168;20.878;2022-09-20T11:10:43;100337.81;;;15.20;76.50
50484;BME280;36409;52.168;20.878;2022-09-20T11:13:23;100338.37;;;15.29;75.98
50484;BME280;36409;52.168;20.878;2022-09-20T11:15:57;100338.37;;;15.29;75.62
50484;BME280;36409;52.168;20.878;2022-09-20T11:18:31;100338.41;;;15.28;76.08
50484;BME280;36409;52.168;20.878;2022-09-20T11:21:09;100333.47;;;15.19;75.68
50484;BME280;36409;52.168;20.878;2022-09-20T11:23:48;100338.22;;;15.07;75.47
50484;BME280;36409;52.168;20.878;2022-09-20T11:26:24;100331.97;;;15.11;75.65
50484;BME280;36409;52.168;20.878;2022-09-20T11:28:58;100333.95;;;15.55;75.62
50484;BME280;36409;52.168;20.878;2022-09-20T11:31:34;100327.33;;;15.94;75.76
50484;BME280;36409;52.168;20.878;2022-09-20T11:34:12;100337.01;;;16.17;75.45
50484;BME280;36409;52.168;20.878;2022-09-20T11:36:46;100335.18;;;16.19;74.91
50484;BME280;36409;52.168;20.878;2022-09-20T11:39:22;100338.44;;;16.26;74.50
50484;BME280;36409;52.168;20.878;2022-09-20T11:41:58;100336.25;;;16.38;74.58
50484;BME280;36409;52.168;20.878;2022-09-20T11:44:28;100340.64;;;16.37;74.01
50484;BME280;36409;52.168;20.878;2022-09-20T11:47:02;100338.01;;;16.37;74.00
50484;BME280;36409;52.168;20.878;2022-09-20T11:49:40;100346.53;;;16.44;73.78
50484;BME280;36409;52.168;20.878;2022-09-20T11:52:29;100338.88;;;16.38;73.83
50484;BME280;36409;52.168;20.878;2022-09-20T11:55:11;100343.92;;;16.20;73.37
50484;BME280;36409;52.168;20.878;2022-09-20T11:57:48;100339.28;;;16.27;73.54
50484;BME280;36409;52.168;20.878;2022-09-20T12:00:30;100337.46;;;16.51;73.53
50484;BME280;36409;52.168;20.878;2022-09-20T12:03:01;100333.66;;;16.80;73.11
50484;BME280;36409;52.168;20.878;2022-09-20T12:05:33;100339.42;;;16.90;72.35
50484;BME280;36409;52.168;20.878;2022-09-20T12:08:07;100340.72;;;17.02;72.64
50484;BME280;36409;52.168;20.878;2022-09-20T12:10:55;100331.13;;;17.22;72.63
50484;BME280;36409;52.168;20.878;2022-09-20T12:13:26;100329.61;;;17.16;72.10
50484;BME280;36409;52.168;20.878;2022-09-20T12:16:04;100333.08;;;16.96;71.79
50484;BME280;36409;52.168;20.878;2022-09-20T12:18:59;100322.47;;;16.75;71.90
50484;BME280;36409;52.168;20.878;2022-09-20T12:21:29;100334.05;;;16.49;71.47
50484;BME280;36409;52.168;20.878;2022-09-20T12:24:16;100337.38;;;16.30;71.36
50484;BME280;36409;52.168;20.878;2022-09-20T12:26:47;100333.75;;;16.11;71.88
50484;BME280;36409;52.168;20.878;2022-09-20T12:29:51;100337.92;;;16.16;71.47
50484;BME280;36409;52.168;20.878;2022-09-20T12:32:43;100336.09;;;16.18;71.20
50484;BME280;36409;52.168;20.878;2022-09-20T12:38:34;100329.11;;;16.17;70.72
50484;BME280;36409;52.168;20.878;2022-09-20T12:41:10;100321.25;;;16.16;70.13
50484;BME280;36409;52.168;20.878;2022-09-20T12:43:52;100325.38;;;16.23;70.83
50484;BME280;36409;52.168;20.878;2022-09-20T12:46:31;100318.03;;;16.31;70.74
50484;BME280;36409;52.168;20.878;2022-09-20T12:49:36;100314.78;;;16.25;70.71
50484;BME280;36409;52.168;20.878;2022-09-20T12:55:38;100317.38;;;16.26;70.61
50484;BME280;36409;52.168;20.878;2022-09-20T12:58:22;100314.30;;;16.37;70.52
50484;BME280;36409;52.168;20.878;2022-09-20T13:01:29;100309.04;;;16.37;70.16
50484;BME280;36409;52.168;20.878;2022-09-20T13:09:50;100304.94;;;16.52;69.63
50484;BME280;36409;52.168;20.878;2022-09-20T13:12:21;100307.95;;;16.65;69.54
50484;BME280;36409;52.168;20.878;2022-09-20T13:14:49;100314.56;;;16.75;69.37
50484;BME280;36409;52.168;20.878;2022-09-20T13:17:26;100318.23;;;16.71;68.88
50484;BME280;36409;52.168;20.878;2022-09-20T13:19:58;100321.36;;;16.59;68.40
50484;BME280;36409;52.168;20.878;2022-09-20T13:22:33;100325.20;;;16.50;67.94
50484;BME280;36409;52.168;20.878;2022-09-20T13:25:09;100325.28;;;16.48;68.39
50484;BME280;36409;52.168;20.878;2022-09-20T13:27:45;100323.02;;;16.39;67.92
50484;BME280;36409;52.168;20.878;2022-09-20T13:30:18;100322.64;;;16.26;68.01
50484;BME280;36409;52.168;20.878;2022-09-20T13:32:48;100330.58;;;16.25;68.62
50484;BME280;36409;52.168;20.878;2022-09-20T13:35:20;100329.00;;;16.20;68.52
50484;BME280;36409;52.168;20.878;2022-09-20T13:37:52;100333.50;;;16.17;68.11
50484;BME280;36409;52.168;20.878;2022-09-20T13:40:24;100331.11;;;16.11;68.05
50484;BME280;36409;52.168;20.878;2022-09-20T13:42:57;100331.29;;;16.06;68.19
50484;BME280;36409;52.168;20.878;2022-09-20T13:45:52;100335.75;;;16.04;67.82
50484;BME280;36409;52.168;20.878;2022-09-20T13:48:25;100334.09;;;16.01;67.80
50484;BME280;36409;52.168;20.878;2022-09-20T13:50:54;100337.75;;;15.97;67.43
50484;BME280;36409;52.168;20.878;2022-09-20T13:53:25;100329.95;;;15.94;67.91
50484;BME280;36409;52.168;20.878;2022-09-20T13:56:13;100332.55;;;15.96;67.70
50484;BME280;36409;52.168;20.878;2022-09-20T13:58:44;100337.64;;;16.00;67.57
50484;BME280;36409;52.168;20.878;2022-09-20T14:01:23;100327.78;;;16.05;66.97
50484;BME280;36409;52.168;20.878;2022-09-20T14:03:54;100329.33;;;16.11;67.29
50484;BME280;36409;52.168;20.878;2022-09-20T14:06:27;100324.58;;;16.21;67.22
50484;BME280;36409;52.168;20.878;2022-09-20T14:08:58;100330.40;;;16.29;67.21
50484;BME280;36409;52.168;20.878;2022-09-20T14:11:34;100329.48;;;16.30;67.31
50484;BME280;36409;52.168;20.878;2022-09-20T14:14:05;100333.10;;;16.28;67.12
50484;BME280;36409;52.168;20.878;2022-09-20T14:16:38;100324.76;;;16.16;67.17
50484;BME280;36409;52.168;20.878;2022-09-20T14:19:08;100326.06;;;16.04;66.81
50484;BME280;36409;52.168;20.878;2022-09-20T14:21:38;100331.00;;;15.90;66.61